Pittsburgh, Pennsylvania
Traffic Map
Current Weather Conditions
Pittsburgh, Pennsylvania
Clear
Clear

Feels Like: -3°
Wind Chill: -3° Ceiling: Unl
Heat Index: Visibility: 10mi
Dew Point: -8° Wind: 8mph
Humidity: 54% Direction: 210° (SSW)
Pressure: 29.98in Gusts: 0mph
Raw Report DataKAGC 111653Z 21007KT 10SM CLR 01/M08 A2998 RMK AO2 SLP168 T00061078
Traffic Incident Summary
Active as of:
Severity:
Category:
InformationThere was an issue retrieving the traffic information for this location. Please try a different location or try again shortly.
Advertisements